createdAt,value
2017-06-21T00:00:33.678Z,9.30
2017-06-21T00:03:01.611Z,8.60
2017-06-21T00:05:29.201Z,8.97
2017-06-21T00:07:57.078Z,9.20
2017-06-21T00:10:24.953Z,9.37
2017-06-21T00:12:52.862Z,8.37
2017-06-21T00:15:20.346Z,9.40
2017-06-21T00:17:47.861Z,8.77
2017-06-21T00:20:15.532Z,8.37
2017-06-21T00:22:43.055Z,8.47
2017-06-21T00:25:10.579Z,8.77
2017-06-21T00:27:38.116Z,8.23
2017-06-21T00:30:06.010Z,8.60
2017-06-21T00:32:33.549Z,8.73
2017-06-21T00:35:01.426Z,8.40
2017-06-21T00:37:28.939Z,8.57
2017-06-21T00:39:56.484Z,9.20
2017-06-21T00:42:23.963Z,9.53
2017-06-21T00:44:51.460Z,9.20
2017-06-21T00:47:19.411Z,9.27
2017-06-21T00:49:47.138Z,9.00
2017-06-21T00:52:14.861Z,9.17
2017-06-21T00:54:43.288Z,8.27
2017-06-21T00:57:10.809Z,9.10
2017-06-21T00:59:38.313Z,8.57
2017-06-21T01:02:05.886Z,9.67
2017-06-21T01:04:33.491Z,9.60
2017-06-21T01:07:00.979Z,7.70
2017-06-21T01:09:29.393Z,9.23
2017-06-21T01:11:56.889Z,8.67
2017-06-21T01:14:25.053Z,9.50
2017-06-21T01:16:52.601Z,9.03
2017-06-21T01:19:20.257Z,8.50
2017-06-21T01:21:47.758Z,9.20
2017-06-21T01:24:15.247Z,8.70
2017-06-21T01:26:43.141Z,10.17
2017-06-21T01:29:11.042Z,8.93
2017-06-21T01:31:38.514Z,8.30
2017-06-21T01:34:05.999Z,9.67
2017-06-21T01:36:33.491Z,8.70
2017-06-21T01:39:01.366Z,8.80
2017-06-21T01:41:29.261Z,8.63
2017-06-21T01:43:56.978Z,8.77
2017-06-21T01:46:24.488Z,8.03
2017-06-21T01:48:51.982Z,8.33
2017-06-21T01:51:20.785Z,9.20
2017-06-21T01:53:48.274Z,9.10
2017-06-21T01:56:15.736Z,8.70
2017-06-21T01:58:43.650Z,9.40
2017-06-21T02:01:11.147Z,9.47
2017-06-21T02:03:38.934Z,8.93
2017-06-21T02:06:06.824Z,8.37
2017-06-21T02:08:35.115Z,8.60
2017-06-21T02:11:02.794Z,9.17
2017-06-21T02:13:30.272Z,9.27
2017-06-21T02:15:57.762Z,8.80
2017-06-21T02:18:25.260Z,9.73
2017-06-21T02:20:53.136Z,9.37
2017-06-21T02:23:20.796Z,9.13
2017-06-21T02:25:48.708Z,8.80
2017-06-21T02:28:16.247Z,9.83
2017-06-21T02:30:43.757Z,9.13
2017-06-21T02:33:11.243Z,9.80
2017-06-21T02:35:38.763Z,9.87
2017-06-21T02:38:06.217Z,9.37
2017-06-21T02:40:33.755Z,8.97
2017-06-21T02:43:01.233Z,10.43
2017-06-21T02:45:28.703Z,9.80
2017-06-21T02:47:56.224Z,9.40
2017-06-21T02:50:23.731Z,9.77
2017-06-21T02:52:51.265Z,9.20
2017-06-21T02:55:18.736Z,9.03
2017-06-21T02:57:46.195Z,9.80
2017-06-21T03:00:14.036Z,10.13
2017-06-21T03:02:41.499Z,9.40
2017-06-21T03:05:09.017Z,9.33
2017-06-21T03:07:36.585Z,9.27
2017-06-21T03:10:04.065Z,9.47
2017-06-21T03:12:32.293Z,9.50
2017-06-21T03:15:11.939Z,9.23
2017-06-21T03:17:39.397Z,9.63
2017-06-21T03:20:06.940Z,8.83
2017-06-21T03:22:34.450Z,9.50
2017-06-21T03:25:01.895Z,8.77
2017-06-21T03:27:29.418Z,8.63
2017-06-21T03:29:56.896Z,9.20
2017-06-21T03:32:24.783Z,9.00
2017-06-21T03:34:52.772Z,9.13
2017-06-21T03:37:20.227Z,8.50
2017-06-21T03:39:47.711Z,9.27
2017-06-21T03:42:15.428Z,9.50
2017-06-21T03:44:43.300Z,9.20
2017-06-21T03:47:11.168Z,9.00
2017-06-21T03:49:39.446Z,9.60
2017-06-21T03:52:06.917Z,8.57
2017-06-21T03:54:34.386Z,9.23
2017-06-21T03:57:02.563Z,9.70
2017-06-21T03:59:30.442Z,8.80
2017-06-21T04:01:58.322Z,7.57
2017-06-21T04:04:25.879Z,7.87
2017-06-21T04:06:53.738Z,8.90
2017-06-21T04:09:21.637Z,10.20
2017-06-21T04:11:49.141Z,9.13
2017-06-21T04:14:16.928Z,10.00
2017-06-21T04:16:44.392Z,8.00
2017-06-21T04:19:11.905Z,9.43
2017-06-21T04:21:39.427Z,9.50
2017-06-21T04:24:07.092Z,8.57
2017-06-21T04:26:34.982Z,8.60
2017-06-21T04:29:02.856Z,7.57
2017-06-21T04:31:30.740Z,7.87
2017-06-21T04:33:58.262Z,8.97
2017-06-21T04:36:25.737Z,8.00
2017-06-21T04:38:53.266Z,8.23
2017-06-21T04:41:20.755Z,8.77
2017-06-21T04:43:48.618Z,8.10
2017-06-21T04:46:16.097Z,8.03
2017-06-21T04:48:43.981Z,8.07
2017-06-21T04:51:11.874Z,8.70
2017-06-21T04:53:39.408Z,8.30
2017-06-21T04:56:07.266Z,8.40
2017-06-21T04:58:34.758Z,7.77
2017-06-21T05:01:02.279Z,7.60
2017-06-21T05:03:29.734Z,7.63
2017-06-21T05:05:57.216Z,8.70
2017-06-21T05:08:24.725Z,7.13
2017-06-21T05:10:52.481Z,8.53
2017-06-21T05:13:20.167Z,8.10
2017-06-21T05:15:47.664Z,8.17
2017-06-21T05:18:15.198Z,8.10
2017-06-21T05:20:42.683Z,7.60
2017-06-21T05:23:10.248Z,7.13
2017-06-21T05:25:38.617Z,7.50
2017-06-21T05:28:06.084Z,7.33
2017-06-21T05:30:33.584Z,7.67
2017-06-21T05:33:01.086Z,7.13
2017-06-21T05:35:28.542Z,7.03
2017-06-21T05:37:56.058Z,7.10
2017-06-21T05:40:23.500Z,7.57
2017-06-21T05:42:50.966Z,7.33
2017-06-21T05:45:19.418Z,7.97
2017-06-21T05:47:46.903Z,7.27
2017-06-21T05:50:14.425Z,7.07
2017-06-21T05:52:41.880Z,8.20
2017-06-21T05:55:09.745Z,7.30
2017-06-21T05:57:37.712Z,7.63
2017-06-21T06:00:05.181Z,7.97
2017-06-21T06:02:33.179Z,7.30
2017-06-21T06:05:00.681Z,7.37
2017-06-21T06:07:28.195Z,7.37
2017-06-21T06:09:56.085Z,6.50
2017-06-21T06:12:23.584Z,7.03
2017-06-21T06:14:51.289Z,7.00
2017-06-21T06:17:19.198Z,6.80
2017-06-21T06:19:46.750Z,7.17
2017-06-21T06:22:14.267Z,7.30
2017-06-21T06:24:42.133Z,8.23
2017-06-21T06:27:09.625Z,7.63
2017-06-21T06:29:37.548Z,6.67
2017-06-21T06:32:05.003Z,6.83
2017-06-21T06:34:32.482Z,5.90
2017-06-21T06:37:00.005Z,6.87
2017-06-21T06:39:27.501Z,6.67
2017-06-21T06:41:54.983Z,7.00
2017-06-21T06:44:22.532Z,8.33
2017-06-21T06:46:50.013Z,6.93
2017-06-21T06:49:19.558Z,7.53
2017-06-21T06:51:47.300Z,7.23
2017-06-21T06:54:15.242Z,7.10
2017-06-21T06:56:42.742Z,7.60
2017-06-21T06:59:10.733Z,6.13
2017-06-21T07:01:38.241Z,6.50
2017-06-21T07:04:05.745Z,6.83
2017-06-21T07:06:33.651Z,6.87
2017-06-21T07:09:01.131Z,6.67
2017-06-21T07:11:28.774Z,7.00
2017-06-21T07:13:56.244Z,6.50
2017-06-21T07:16:23.870Z,6.80
2017-06-21T07:18:52.044Z,6.63
2017-06-21T07:21:19.929Z,6.80
2017-06-21T07:23:47.888Z,6.30
2017-06-21T07:26:16.081Z,7.07
2017-06-21T07:28:43.962Z,6.53
2017-06-21T07:31:11.953Z,7.10
2017-06-21T07:33:39.482Z,7.30
2017-06-21T07:36:07.725Z,7.20
2017-06-21T07:38:35.224Z,7.77
2017-06-21T07:41:03.134Z,6.80
2017-06-21T07:43:30.654Z,7.03
2017-06-21T07:45:58.135Z,7.00
2017-06-21T07:48:26.048Z,6.40
2017-06-21T07:50:54.433Z,7.30
2017-06-21T07:53:22.490Z,6.67
2017-06-21T07:55:51.204Z,7.07
2017-06-21T07:58:18.937Z,6.47
2017-06-21T08:00:46.578Z,7.90
2017-06-21T08:03:15.125Z,7.30
2017-06-21T08:05:43.054Z,6.47
2017-06-21T08:08:11.170Z,6.57
2017-06-21T08:10:38.858Z,6.80
2017-06-21T08:25:52.390Z,6.43
2017-06-21T08:28:19.903Z,6.30
2017-06-21T08:30:47.570Z,6.90
2017-06-21T08:33:15.048Z,7.27
2017-06-21T08:35:42.576Z,6.87
2017-06-21T08:38:10.436Z,6.90
2017-06-21T08:40:39.161Z,7.27
2017-06-21T08:43:06.729Z,7.37
2017-06-21T08:45:34.211Z,7.10
2017-06-21T08:48:01.737Z,6.80
2017-06-21T08:50:29.278Z,6.80
2017-06-21T08:52:57.160Z,6.93
2017-06-21T08:55:25.090Z,7.50
2017-06-21T08:57:52.557Z,7.20
2017-06-21T09:00:20.077Z,6.50
2017-06-21T09:02:47.593Z,6.63
2017-06-21T09:05:15.314Z,6.73
2017-06-21T09:07:42.797Z,6.70
2017-06-21T09:10:10.292Z,6.67
2017-06-21T09:12:37.908Z,7.37
2017-06-21T09:15:05.372Z,6.57
2017-06-21T09:17:32.936Z,6.87
2017-06-21T09:20:00.435Z,6.93
2017-06-21T09:22:27.971Z,7.57
2017-06-21T09:24:55.729Z,7.80
2017-06-21T09:27:23.219Z,7.10
2017-06-21T09:29:50.717Z,7.37
2017-06-21T09:32:18.692Z,7.53
2017-06-21T09:34:46.565Z,7.67
2017-06-21T09:37:14.470Z,6.57
2017-06-21T09:39:42.149Z,6.83
2017-06-21T09:42:09.999Z,6.77
2017-06-21T09:44:37.546Z,7.77
2017-06-21T09:47:05.440Z,7.50
2017-06-21T09:49:32.965Z,7.03
2017-06-21T09:52:00.436Z,7.17
2017-06-21T09:54:28.328Z,7.00
2017-06-21T09:56:55.833Z,6.40
2017-06-21T09:59:23.322Z,7.53
2017-06-21T10:01:50.842Z,6.97
2017-06-21T10:04:18.578Z,6.50
2017-06-21T10:06:46.487Z,6.87
2017-06-21T10:09:13.964Z,7.17
2017-06-21T10:11:41.524Z,6.90
2017-06-21T10:14:09.030Z,6.37
2017-06-21T10:16:37.024Z,6.67
2017-06-21T10:19:04.540Z,7.20
2017-06-21T10:21:32.137Z,6.60
2017-06-21T10:23:59.779Z,7.40
2017-06-21T10:26:27.279Z,7.30
2017-06-21T10:28:54.777Z,7.27
2017-06-21T10:31:22.263Z,6.30
2017-06-21T10:33:49.837Z,7.17
2017-06-21T10:36:17.675Z,7.00
2017-06-21T10:38:45.778Z,7.90
2017-06-21T10:41:13.282Z,7.60
2017-06-21T10:43:40.785Z,8.10
2017-06-21T10:46:08.611Z,8.03
2017-06-21T10:48:36.076Z,7.00
2017-06-21T10:51:03.859Z,7.87
2017-06-21T10:53:31.594Z,8.57
2017-06-21T10:55:59.586Z,7.70
2017-06-21T10:58:27.454Z,7.80
2017-06-21T11:00:54.989Z,7.87
2017-06-21T11:03:22.455Z,7.40
2017-06-21T11:05:49.979Z,7.60
2017-06-21T11:08:17.496Z,7.70
2017-06-21T11:10:45.359Z,7.30
2017-06-21T11:13:12.849Z,7.30
2017-06-21T11:15:40.372Z,7.30
2017-06-21T11:18:08.623Z,7.63
2017-06-21T11:20:36.581Z,8.07
2017-06-21T11:23:04.342Z,7.60
2017-06-21T11:25:32.781Z,7.83
2017-06-21T11:28:00.438Z,8.17
2017-06-21T11:30:30.110Z,7.70
2017-06-21T11:32:57.755Z,7.70
2017-06-21T11:35:25.242Z,7.67
2017-06-21T11:37:53.026Z,7.70
2017-06-21T11:40:21.380Z,9.03
2017-06-21T11:42:49.180Z,7.73
2017-06-21T11:45:16.657Z,8.40
2017-06-21T11:47:44.713Z,7.13
2017-06-21T11:50:12.825Z,7.27
2017-06-21T11:52:41.235Z,6.60
2017-06-21T11:55:09.213Z,6.83
2017-06-21T11:57:36.703Z,7.40
2017-06-21T12:00:04.230Z,6.40
2017-06-21T12:02:32.222Z,6.50
2017-06-21T12:04:59.783Z,7.40
2017-06-21T12:07:27.315Z,6.23
2017-06-21T12:09:55.215Z,6.83
2017-06-21T12:12:22.768Z,8.17
2017-06-21T12:14:50.317Z,7.80
2017-06-21T12:17:17.817Z,7.33
2017-06-21T12:19:45.378Z,7.47
2017-06-21T12:22:12.921Z,6.77
2017-06-21T12:24:40.866Z,7.90
2017-06-21T12:27:08.592Z,7.83
2017-06-21T12:29:36.111Z,9.87
2017-06-21T12:32:05.866Z,7.23
2017-06-21T12:34:35.246Z,7.50
2017-06-21T12:37:02.796Z,8.00
2017-06-21T12:39:32.089Z,7.50
2017-06-21T12:41:59.640Z,7.50
2017-06-21T12:44:27.331Z,7.57
2017-06-21T12:46:55.001Z,7.90
2017-06-21T12:49:22.908Z,8.10
2017-06-21T12:51:50.467Z,7.77
2017-06-21T12:54:17.990Z,7.10
2017-06-21T12:56:45.520Z,7.77
2017-06-21T12:59:13.138Z,7.80
2017-06-21T13:01:41.161Z,7.47
2017-06-21T13:04:08.653Z,8.13
2017-06-21T13:06:36.222Z,8.03
2017-06-21T13:09:03.727Z,8.30
2017-06-21T13:11:31.233Z,8.07
2017-06-21T13:13:58.791Z,7.97
2017-06-21T13:16:26.334Z,8.03
2017-06-21T13:18:53.877Z,7.10
2017-06-21T13:21:21.553Z,7.70
2017-06-21T13:23:49.149Z,7.80
2017-06-21T13:26:16.694Z,9.37
2017-06-21T13:28:44.444Z,7.50
2017-06-21T13:31:11.972Z,7.67
2017-06-21T13:33:39.528Z,7.57
2017-06-21T13:36:07.059Z,8.33
2017-06-21T13:38:34.583Z,7.90
2017-06-21T13:41:02.588Z,7.30
2017-06-21T13:43:30.433Z,8.00
2017-06-21T13:45:58.536Z,7.63
2017-06-21T13:48:26.948Z,6.90
2017-06-21T13:50:55.103Z,7.57
2017-06-21T13:53:23.997Z,8.33
2017-06-21T13:55:52.951Z,7.27
2017-06-21T13:58:21.456Z,7.80
2017-06-21T14:00:49.051Z,7.33
2017-06-21T14:03:17.683Z,7.93
2017-06-21T14:05:46.004Z,7.10
2017-06-21T14:08:13.577Z,7.73
2017-06-21T14:10:41.642Z,8.40
2017-06-21T14:13:10.038Z,8.00
2017-06-21T14:15:38.670Z,8.53
2017-06-21T14:18:06.591Z,7.80
2017-06-21T14:20:35.224Z,8.03
2017-06-21T14:23:04.230Z,8.27
2017-06-21T14:25:33.225Z,8.07
2017-06-21T14:28:01.874Z,7.87
2017-06-21T14:30:30.601Z,8.50
2017-06-21T14:32:58.784Z,6.97
2017-06-21T14:35:26.586Z,7.10
2017-06-21T14:37:54.068Z,7.63
2017-06-21T14:40:21.572Z,7.60
2017-06-21T14:42:49.909Z,6.90
2017-06-21T14:45:18.334Z,7.30
2017-06-21T14:47:46.903Z,6.90
2017-06-21T14:50:16.457Z,7.53
2017-06-21T14:52:48.102Z,7.87
2017-06-21T14:55:17.516Z,7.30
2017-06-21T14:57:47.926Z,7.43
2017-06-21T15:00:17.521Z,6.97
2017-06-21T15:02:47.219Z,7.70
2017-06-21T15:05:16.752Z,7.40
2017-06-21T15:07:45.498Z,7.23
2017-06-21T15:10:14.311Z,8.37
2017-06-21T15:12:43.283Z,7.97
2017-06-21T15:15:12.125Z,8.50
2017-06-21T15:17:42.007Z,8.50
2017-06-21T15:20:11.275Z,8.07
2017-06-21T15:22:40.526Z,7.57
2017-06-21T15:25:09.669Z,7.37
2017-06-21T15:27:39.064Z,7.17
2017-06-21T15:30:08.708Z,7.97
2017-06-21T15:32:36.806Z,8.60
2017-06-21T15:35:05.579Z,7.87
2017-06-21T15:37:33.783Z,8.53
2017-06-21T15:40:02.201Z,8.10
2017-06-21T15:42:30.600Z,8.00
2017-06-21T15:44:59.332Z,8.27
2017-06-21T15:47:27.758Z,8.20
2017-06-21T15:49:55.997Z,7.67
2017-06-21T15:52:24.617Z,8.47
2017-06-21T15:54:52.864Z,7.87
2017-06-21T15:57:22.126Z,7.53
2017-06-21T15:59:50.869Z,8.27
2017-06-21T16:02:19.784Z,7.97
2017-06-21T16:04:48.188Z,8.20
2017-06-21T16:07:16.346Z,7.80
2017-06-21T16:09:45.013Z,7.77
2017-06-21T16:12:14.920Z,7.10
2017-06-21T16:14:43.348Z,8.10
2017-06-21T16:17:12.199Z,7.57
2017-06-21T16:19:40.766Z,8.10
2017-06-21T16:22:10.184Z,7.70
2017-06-21T16:24:38.614Z,7.77
2017-06-21T16:27:07.164Z,7.90
2017-06-21T16:29:35.328Z,8.57
2017-06-21T16:32:03.572Z,8.30
2017-06-21T16:34:31.618Z,7.97
2017-06-21T16:37:00.045Z,8.20
2017-06-21T16:39:28.693Z,7.57
2017-06-21T16:41:57.051Z,7.67
2017-06-21T16:44:25.939Z,7.43
2017-06-21T16:46:53.922Z,7.63
2017-06-21T16:49:22.304Z,7.40
2017-06-21T16:51:50.698Z,7.70
2017-06-21T16:54:19.227Z,6.67
2017-06-21T16:56:47.813Z,7.50
2017-06-21T16:59:16.355Z,9.20
2017-06-21T17:01:45.034Z,8.37
2017-06-21T17:04:13.567Z,7.47
2017-06-21T17:06:42.500Z,7.57
2017-06-21T17:09:10.800Z,7.50
2017-06-21T17:11:38.914Z,7.33
2017-06-21T17:14:08.337Z,8.50
2017-06-21T17:16:37.446Z,8.23
2017-06-21T17:19:06.203Z,7.93
2017-06-21T17:21:34.165Z,7.63
2017-06-21T17:24:02.201Z,7.07
2017-06-21T17:26:31.896Z,8.00
2017-06-21T17:29:00.264Z,7.73
2017-06-21T17:31:28.875Z,8.03
2017-06-21T17:33:57.292Z,15.57
2017-06-21T17:36:26.120Z,11.07
2017-06-21T17:38:54.569Z,8.00
2017-06-21T17:41:24.559Z,7.70
2017-06-21T17:43:54.735Z,7.60
2017-06-21T17:46:22.602Z,8.10
2017-06-21T17:48:50.667Z,7.37
2017-06-21T17:51:18.517Z,7.40
2017-06-21T17:53:47.068Z,6.70
2017-06-21T17:56:16.033Z,8.07
2017-06-21T17:58:45.053Z,7.50
2017-06-21T18:01:14.546Z,7.30
2017-06-21T18:03:43.436Z,7.40
2017-06-21T18:06:12.921Z,9.77
2017-06-21T18:08:41.520Z,7.40
2017-06-21T18:11:10.265Z,7.17
2017-06-21T18:13:38.626Z,7.30
2017-06-21T18:16:06.988Z,6.00
2017-06-21T18:18:35.607Z,7.17
2017-06-21T18:21:03.633Z,6.90
2017-06-21T18:23:32.614Z,6.30
2017-06-21T18:26:01.894Z,6.50
2017-06-21T18:28:31.171Z,15.10
2017-06-21T18:30:59.874Z,9.60
2017-06-21T18:33:30.606Z,6.10
2017-06-21T18:35:59.815Z,5.63
2017-06-21T18:38:29.048Z,5.57
2017-06-21T18:40:57.217Z,5.97
2017-06-21T18:43:25.854Z,5.97
2017-06-21T18:45:54.233Z,5.13
2017-06-21T18:48:22.847Z,6.20
2017-06-21T18:50:51.361Z,6.07
2017-06-21T18:53:20.316Z,6.07
2017-06-21T18:55:48.808Z,4.67
2017-06-21T18:58:16.815Z,5.07
2017-06-21T19:00:46.192Z,6.90
2017-06-21T19:03:14.762Z,5.73
2017-06-21T19:05:44.087Z,4.87
2017-06-21T19:08:12.948Z,6.80
2017-06-21T19:10:40.810Z,5.33
2017-06-21T19:13:09.902Z,5.37
2017-06-21T19:15:38.121Z,5.20
2017-06-21T19:18:06.331Z,5.23
2017-06-21T19:20:35.219Z,4.90
2017-06-21T19:23:03.387Z,4.70
2017-06-21T19:25:31.710Z,5.20
2017-06-21T19:28:00.138Z,5.13
2017-06-21T19:30:28.431Z,5.30
2017-06-21T19:32:56.773Z,5.10
2017-06-21T19:35:25.044Z,4.90
2017-06-21T19:37:52.921Z,5.10
2017-06-21T19:40:21.712Z,5.43
2017-06-21T19:42:50.345Z,5.43
2017-06-21T19:45:18.629Z,5.00
2017-06-21T19:47:47.127Z,5.70
2017-06-21T19:50:15.778Z,6.00
2017-06-21T19:52:45.000Z,5.60
2017-06-21T19:55:14.190Z,5.47
2017-06-21T19:57:43.081Z,5.37
2017-06-21T20:00:11.639Z,5.40
2017-06-21T20:02:40.443Z,5.30
2017-06-21T20:05:09.555Z,5.60
2017-06-21T20:07:37.932Z,5.00
2017-06-21T20:10:07.315Z,6.10
2017-06-21T20:12:36.625Z,5.77
2017-06-21T20:15:05.123Z,5.93
2017-06-21T20:17:33.628Z,6.90
2017-06-21T20:20:01.955Z,7.87
2017-06-21T20:22:31.038Z,7.87
2017-06-21T20:24:59.949Z,7.60
2017-06-21T20:27:28.696Z,8.30
2017-06-21T20:29:57.096Z,7.57
2017-06-21T20:32:25.490Z,6.80
2017-06-21T20:34:53.918Z,7.00
2017-06-21T20:37:22.199Z,7.10
2017-06-21T20:39:50.613Z,7.03
2017-06-21T20:42:19.214Z,8.30
2017-06-21T20:44:47.344Z,8.07
2017-06-21T20:47:16.211Z,7.47
2017-06-21T20:49:44.963Z,6.60
2017-06-21T20:52:12.923Z,6.43
2017-06-21T20:54:41.600Z,5.97
2017-06-21T20:57:10.022Z,6.60
2017-06-21T20:59:39.134Z,6.97
2017-06-21T21:02:08.902Z,6.13
2017-06-21T21:04:36.663Z,5.70
2017-06-21T21:07:05.430Z,6.47
2017-06-21T21:09:34.246Z,6.90
2017-06-21T21:12:02.764Z,6.90
2017-06-21T21:14:30.726Z,6.37
2017-06-21T21:16:58.749Z,6.13
2017-06-21T21:19:27.520Z,6.63
2017-06-21T21:21:55.650Z,6.90
2017-06-21T21:24:24.180Z,6.40
2017-06-21T21:26:51.973Z,7.00
2017-06-21T21:29:20.825Z,7.07
2017-06-21T21:31:49.969Z,6.97
2017-06-21T21:34:18.711Z,7.00
2017-06-21T21:36:47.157Z,6.70
2017-06-21T21:39:15.731Z,6.73
2017-06-21T21:41:44.747Z,6.50
2017-06-21T21:44:13.250Z,7.37
2017-06-21T21:46:41.676Z,6.83
2017-06-21T21:49:09.863Z,7.53
2017-06-21T21:51:38.221Z,7.10
2017-06-21T21:54:07.289Z,6.37
2017-06-21T21:56:35.773Z,6.53
2017-06-21T21:59:03.760Z,5.93
2017-06-21T22:01:31.923Z,6.93
2017-06-21T22:04:00.767Z,7.40
2017-06-21T22:06:29.106Z,6.97
2017-06-21T22:08:57.188Z,6.80
2017-06-21T22:11:26.101Z,6.60
2017-06-21T22:13:54.737Z,6.70
2017-06-21T22:16:23.454Z,7.07
2017-06-21T22:18:51.457Z,6.57
2017-06-21T22:21:19.778Z,7.23
2017-06-21T22:23:48.539Z,7.60
2017-06-21T22:26:16.933Z,7.07
2017-06-21T22:28:45.734Z,8.13
2017-06-21T22:31:13.964Z,6.90
2017-06-21T22:33:42.221Z,7.80
2017-06-21T22:36:11.246Z,7.90
2017-06-21T22:38:39.311Z,7.70
2017-06-21T22:41:08.241Z,7.33
2017-06-21T22:43:36.459Z,7.23
2017-06-21T22:46:05.443Z,7.27
2017-06-21T22:48:33.258Z,7.90
2017-06-21T22:51:01.737Z,7.53
2017-06-21T22:53:30.654Z,7.40
2017-06-21T22:55:59.033Z,7.50
2017-06-21T22:58:27.071Z,7.40
2017-06-21T23:00:55.711Z,7.67
2017-06-21T23:03:24.239Z,7.13
2017-06-21T23:05:52.512Z,7.47
2017-06-21T23:08:20.458Z,7.50
2017-06-21T23:10:49.005Z,7.47
2017-06-21T23:13:17.427Z,8.13
2017-06-21T23:15:46.025Z,8.00
2017-06-21T23:18:14.748Z,7.87
2017-06-21T23:20:43.420Z,7.07
2017-06-21T23:23:12.201Z,7.07
2017-06-21T23:25:40.641Z,8.10
2017-06-21T23:28:09.144Z,8.60
2017-06-21T23:30:37.566Z,8.27
2017-06-21T23:33:06.139Z,8.57
2017-06-21T23:35:34.269Z,7.60
2017-06-21T23:38:03.238Z,8.20
2017-06-21T23:40:33.125Z,8.23
2017-06-21T23:43:01.457Z,8.40
2017-06-21T23:45:30.557Z,9.40
2017-06-21T23:47:59.189Z,8.07
2017-06-21T23:50:28.000Z,8.07
2017-06-21T23:52:56.021Z,8.80
2017-06-21T23:55:24.338Z,7.47
2017-06-21T23:57:52.824Z,8.40
